Lubers, Colorado
Current Conditions -  °F | °C
As of 6:53 PM on Saturday 25 Oct 2014 (Local Time) from KLAA Reporting Station
Clear Clear  
Wind Chill: 67°   Ceiling: Unl
Heat Index: 67°   Visibility: 10mi
Dew Point: 36°   Wind: 13mph
Humidity: 32%   Direction: 140°SE
Pressure: 29.95"   Gusts: NA
Location:  38.0584°N, 102.928°W
Report Text: KLAA 260053Z AUTO 14011KT 10SM CLR 19/02 A2995 RMK AO2 SLP120 T01940022
Loading
Personal Weather Stations






























Interactive Weather Map
Tropical Storm Tracking
New forecast layout! Learn more

10-Day Weather Forecast

Advertisements
Track Severe Weather on mobile